sensor_id;sensor_type;location;lat;lon;timestamp;pressure;altitude;pressure_sealevel;temperature;humidity
74045;BME280;62389;51.412;5.436;2023-01-29T00:00:06;102980.56;;;-2.52;87.55
74045;BME280;62389;51.412;5.436;2023-01-29T00:02:35;102978.75;;;-2.54;87.59
74045;BME280;62389;51.412;5.436;2023-01-29T00:05:01;102983.06;;;-2.53;87.68
74045;BME280;62389;51.412;5.436;2023-01-29T00:07:28;102980.44;;;-2.55;87.68
74045;BME280;62389;51.412;5.436;2023-01-29T00:09:54;102990.69;;;-2.55;87.80
74045;BME280;62389;51.412;5.436;2023-01-29T00:12:19;102988.19;;;-2.53;87.59
74045;BME280;62389;51.412;5.436;2023-01-29T00:14:44;102981.31;;;-2.54;87.68
74045;BME280;62389;51.412;5.436;2023-01-29T00:17:10;102967.63;;;-2.55;88.14
74045;BME280;62389;51.412;5.436;2023-01-29T00:19:35;102979.56;;;-2.55;87.40
74045;BME280;62389;51.412;5.436;2023-01-29T00:22:00;102973.56;;;-2.56;87.80
74045;BME280;62389;51.412;5.436;2023-01-29T00:24:26;102966.66;;;-2.57;87.53
74045;BME280;62389;51.412;5.436;2023-01-29T00:26:51;102963.19;;;-2.59;87.54
74045;BME280;62389;51.412;5.436;2023-01-29T00:29:16;102973.44;;;-2.59;87.63
74045;BME280;62389;51.412;5.436;2023-01-29T00:31:43;102962.38;;;-2.58;87.70
74045;BME280;62389;51.412;5.436;2023-01-29T00:34:09;102959.81;;;-2.58;87.79
74045;BME280;62389;51.412;5.436;2023-01-29T00:36:34;102960.66;;;-2.57;87.96
74045;BME280;62389;51.412;5.436;2023-01-29T00:39:00;102958.94;;;-2.58;87.73
74045;BME280;62389;51.412;5.436;2023-01-29T00:41:34;102965.69;;;-2.61;87.96
74045;BME280;62389;51.412;5.436;2023-01-29T00:44:18;102960.41;;;-2.64;87.78
74045;BME280;62389;51.412;5.436;2023-01-29T00:47:03;102951.84;;;-2.64;88.09
74045;BME280;62389;51.412;5.436;2023-01-29T00:49:28;102956.31;;;-2.60;88.49
74045;BME280;62389;51.412;5.436;2023-01-29T00:51:57;102951.31;;;-2.57;88.16
74045;BME280;62389;51.412;5.436;2023-01-29T00:54:41;102943.63;;;-2.57;88.27
74045;BME280;62389;51.412;5.436;2023-01-29T00:57:06;102938.28;;;-2.62;87.97
74045;BME280;62389;51.412;5.436;2023-01-29T00:59:32;102937.34;;;-2.64;88.42
74045;BME280;62389;51.412;5.436;2023-01-29T01:01:57;102916.84;;;-2.64;88.22
74045;BME280;62389;51.412;5.436;2023-01-29T01:04:41;102926.28;;;-2.63;88.16
74045;BME280;62389;51.412;5.436;2023-01-29T01:07:06;102922.72;;;-2.66;88.09
74045;BME280;62389;51.412;5.436;2023-01-29T01:09:34;102920.91;;;-2.69;88.35
74045;BME280;62389;51.412;5.436;2023-01-29T01:12:18;102919.81;;;-2.74;88.40
74045;BME280;62389;51.412;5.436;2023-01-29T01:14:43;102914.72;;;-2.74;88.68
74045;BME280;62389;51.412;5.436;2023-01-29T01:17:10;102924.13;;;-2.73;88.93
74045;BME280;62389;51.412;5.436;2023-01-29T01:19:35;102920.66;;;-2.75;88.45
74045;BME280;62389;51.412;5.436;2023-01-29T01:22:00;102924.13;;;-2.73;88.90
74045;BME280;62389;51.412;5.436;2023-01-29T01:24:26;102927.78;;;-2.68;89.06
74045;BME280;62389;51.412;5.436;2023-01-29T01:26:51;102926.19;;;-2.66;88.41
74045;BME280;62389;51.412;5.436;2023-01-29T01:29:17;102931.97;;;-2.70;88.52
74045;BME280;62389;51.412;5.436;2023-01-29T01:31:42;102924.03;;;-2.76;88.45
74045;BME280;62389;51.412;5.436;2023-01-29T01:34:07;102924.75;;;-2.78;88.69
74045;BME280;62389;51.412;5.436;2023-01-29T01:36:33;102923.72;;;-2.82;88.77
74045;BME280;62389;51.412;5.436;2023-01-29T01:38:58;102929.59;;;-2.84;88.95
74045;BME280;62389;51.412;5.436;2023-01-29T01:41:24;102933.84;;;-2.85;88.98
74045;BME280;62389;51.412;5.436;2023-01-29T01:43:55;102933.09;;;-2.82;89.30
74045;BME280;62389;51.412;5.436;2023-01-29T01:46:22;102933.31;;;-2.78;89.23
74045;BME280;62389;51.412;5.436;2023-01-29T01:48:51;102937.75;;;-2.74;88.77
74045;BME280;62389;51.412;5.436;2023-01-29T01:51:19;102940.38;;;-2.72;88.74
74045;BME280;62389;51.412;5.436;2023-01-29T01:56:25;102930.06;;;-2.74;88.61
74045;BME280;62389;51.412;5.436;2023-01-29T01:58:56;102930.00;;;-2.75;89.02
74045;BME280;62389;51.412;5.436;2023-01-29T02:01:24;102929.94;;;-2.77;89.23
74045;BME280;62389;51.412;5.436;2023-01-29T02:03:57;102934.19;;;-2.77;88.93
74045;BME280;62389;51.412;5.436;2023-01-29T02:06:43;102936.00;;;-2.75;89.29
74045;BME280;62389;51.412;5.436;2023-01-29T02:09:34;102940.47;;;-2.71;88.60
74045;BME280;62389;51.412;5.436;2023-01-29T02:12:06;102938.56;;;-2.75;88.99
74045;BME280;62389;51.412;5.436;2023-01-29T02:14:33;102936.00;;;-2.75;89.32
74045;BME280;62389;51.412;5.436;2023-01-29T02:17:03;102938.56;;;-2.75;89.12
74045;BME280;62389;51.412;5.436;2023-01-29T02:30:40;102946.56;;;-2.67;89.17
74045;BME280;62389;51.412;5.436;2023-01-29T02:33:29;102946.53;;;-2.69;89.41
74045;BME280;62389;51.412;5.436;2023-01-29T02:36:18;102948.16;;;-2.71;88.94
74045;BME280;62389;51.412;5.436;2023-01-29T02:38:57;102945.59;;;-2.71;89.36
74045;BME280;62389;51.412;5.436;2023-01-29T02:41:32;102946.53;;;-2.69;89.31
74045;BME280;62389;51.412;5.436;2023-01-29T02:44:05;102938.78;;;-2.70;89.64
74045;BME280;62389;51.412;5.436;2023-01-29T02:52:16;102939.38;;;-2.76;89.46
74045;BME280;62389;51.412;5.436;2023-01-29T02:54:50;102937.69;;;-2.75;89.29
74045;BME280;62389;51.412;5.436;2023-01-29T02:57:24;102934.25;;;-2.76;89.11
74045;BME280;62389;51.412;5.436;2023-01-29T02:59:56;102929.16;;;-2.76;88.93
74045;BME280;62389;51.412;5.436;2023-01-29T03:02:29;102932.44;;;-2.78;89.44
74045;BME280;62389;51.412;5.436;2023-01-29T03:05:02;102927.38;;;-2.77;89.66
74045;BME280;62389;51.412;5.436;2023-01-29T03:07:37;102919.78;;;-2.75;89.56
74045;BME280;62389;51.412;5.436;2023-01-29T03:10:22;102924.03;;;-2.76;88.87
74045;BME280;62389;51.412;5.436;2023-01-29T03:13:00;102929.16;;;-2.76;89.31
74045;BME280;62389;51.412;5.436;2023-01-29T03:15:32;102939.28;;;-2.77;89.47
74045;BME280;62389;51.412;5.436;2023-01-29T03:18:07;102935.03;;;-2.77;89.35
74045;BME280;62389;51.412;5.436;2023-01-29T03:20:39;102934.13;;;-2.79;89.18
74045;BME280;62389;51.412;5.436;2023-01-29T03:23:35;102933.31;;;-2.78;89.52
74045;BME280;62389;51.412;5.436;2023-01-29T03:26:20;102927.38;;;-2.77;89.35
74045;BME280;62389;51.412;5.436;2023-01-29T03:29:06;102933.44;;;-2.75;89.63
74045;BME280;62389;51.412;5.436;2023-01-29T03:31:51;102929.25;;;-2.73;89.07
74045;BME280;62389;51.412;5.436;2023-01-29T03:34:38;102930.06;;;-2.74;89.60
74045;BME280;62389;51.412;5.436;2023-01-29T03:37:20;102913.00;;;-2.73;89.28
74045;BME280;62389;51.412;5.436;2023-01-29T03:39:49;102916.50;;;-2.71;89.73
74045;BME280;62389;51.412;5.436;2023-01-29T03:48:20;102915.16;;;-2.63;88.20
74045;BME280;62389;51.412;5.436;2023-01-29T03:51:00;102919.41;;;-2.64;89.15
74045;BME280;62389;51.412;5.436;2023-01-29T03:59:38;102905.06;;;-2.60;89.84
74045;BME280;62389;51.412;5.436;2023-01-29T04:02:10;102900.94;;;-2.56;89.64
74045;BME280;62389;51.412;5.436;2023-01-29T04:04:43;102906.19;;;-2.53;89.07
74045;BME280;62389;51.412;5.436;2023-01-29T04:09:50;102903.06;;;-2.46;89.39
74045;BME280;62389;51.412;5.436;2023-01-29T04:12:23;102904.91;;;-2.44;89.09
74045;BME280;62389;51.412;5.436;2023-01-29T04:14:52;102895.47;;;-2.45;89.36
74045;BME280;62389;51.412;5.436;2023-01-29T04:17:26;102903.22;;;-2.43;89.28
74045;BME280;62389;51.412;5.436;2023-01-29T04:19:54;102895.59;;;-2.42;89.31
74045;BME280;62389;51.412;5.436;2023-01-29T04:22:23;102887.03;;;-2.42;89.48
74045;BME280;62389;51.412;5.436;2023-01-29T04:24:50;102884.56;;;-2.41;89.63
74045;BME280;62389;51.412;5.436;2023-01-29T04:35:34;102879.09;;;-2.27;89.70
74045;BME280;62389;51.412;5.436;2023-01-29T04:38:46;102884.41;;;-2.23;88.98
74045;BME280;62389;51.412;5.436;2023-01-29T04:41:31;102878.63;;;-2.19;89.60
74045;BME280;62389;51.412;5.436;2023-01-29T04:44:09;102874.41;;;-2.17;89.61
74045;BME280;62389;51.412;5.436;2023-01-29T04:55:12;102861.25;;;-2.05;89.75
74045;BME280;62389;51.412;5.436;2023-01-29T04:58:06;102847.69;;;-2.01;89.33
74045;BME280;62389;51.412;5.436;2023-01-29T05:00:38;102852.09;;;-1.98;89.06
74045;BME280;62389;51.412;5.436;2023-01-29T05:03:05;102843.72;;;-1.94;89.49
74045;BME280;62389;51.412;5.436;2023-01-29T05:05:34;102846.31;;;-1.93;89.59
74045;BME280;62389;51.412;5.436;2023-01-29T05:08:01;102845.47;;;-1.93;89.72
74045;BME280;62389;51.412;5.436;2023-01-29T05:10:28;102836.06;;;-1.93;89.86
74045;BME280;62389;51.412;5.436;2023-01-29T05:12:58;102836.13;;;-1.91;89.60
74045;BME280;62389;51.412;5.436;2023-01-29T05:15:53;102825.94;;;-1.90;89.78
74045;BME280;62389;51.412;5.436;2023-01-29T05:18:20;102832.00;;;-1.88;89.51
74045;BME280;62389;51.412;5.436;2023-01-29T05:20:46;102825.13;;;-1.89;89.55
74045;BME280;62389;51.412;5.436;2023-01-29T05:23:16;102821.78;;;-1.86;90.12
74045;BME280;62389;51.412;5.436;2023-01-29T05:25:42;102830.44;;;-1.84;89.52
74045;BME280;62389;51.412;5.436;2023-01-29T05:28:08;102826.31;;;-1.80;89.93
74045;BME280;62389;51.412;5.436;2023-01-29T05:30:47;102835.75;;;-1.79;89.56
74045;BME280;62389;51.412;5.436;2023-01-29T05:33:27;102828.16;;;-1.76;89.97
74045;BME280;62389;51.412;5.436;2023-01-29T05:35:53;102824.78;;;-1.75;90.08
74045;BME280;62389;51.412;5.436;2023-01-29T05:38:20;102815.50;;;-1.72;89.87
74045;BME280;62389;51.412;5.436;2023-01-29T05:40:45;102807.88;;;-1.70;89.47
74045;BME280;62389;51.412;5.436;2023-01-29T05:43:16;102807.97;;;-1.67;90.00
74045;BME280;62389;51.412;5.436;2023-01-29T05:45:43;102806.41;;;-1.64;89.69
74045;BME280;62389;51.412;5.436;2023-01-29T05:48:15;102816.81;;;-1.61;89.76
74045;BME280;62389;51.412;5.436;2023-01-29T05:50:40;102824.50;;;-1.61;89.75
74045;BME280;62389;51.412;5.436;2023-01-29T05:53:06;102830.59;;;-1.57;90.03
74045;BME280;62389;51.412;5.436;2023-01-29T05:55:31;102829.00;;;-1.55;89.70
74045;BME280;62389;51.412;5.436;2023-01-29T05:57:57;102832.47;;;-1.53;89.67
74045;BME280;62389;51.412;5.436;2023-01-29T06:00:22;102835.97;;;-1.51;89.85
74045;BME280;62389;51.412;5.436;2023-01-29T06:02:48;102835.22;;;-1.48;89.77
74045;BME280;62389;51.412;5.436;2023-01-29T06:05:13;102837.78;;;-1.48;89.83
74045;BME280;62389;51.412;5.436;2023-01-29T06:07:39;102842.09;;;-1.47;90.13
74045;BME280;62389;51.412;5.436;2023-01-29T06:10:13;102844.66;;;-1.47;89.31
74045;BME280;62389;51.412;5.436;2023-01-29T06:12:41;102849.94;;;-1.44;89.81
74045;BME280;62389;51.412;5.436;2023-01-29T06:15:07;102850.84;;;-1.42;90.01
74045;BME280;62389;51.412;5.436;2023-01-29T06:17:32;102849.22;;;-1.40;89.09
74045;BME280;62389;51.412;5.436;2023-01-29T06:19:58;102845.84;;;-1.39;89.90
74045;BME280;62389;51.412;5.436;2023-01-29T06:22:23;102833.91;;;-1.37;89.49
74045;BME280;62389;51.412;5.436;2023-01-29T06:24:48;102839.19;;;-1.34;89.56
74045;BME280;62389;51.412;5.436;2023-01-29T06:27:14;102857.19;;;-1.33;89.86
74045;BME280;62389;51.412;5.436;2023-01-29T06:29:39;102857.34;;;-1.29;89.48
74045;BME280;62389;51.412;5.436;2023-01-29T06:32:04;102861.69;;;-1.27;89.40
74045;BME280;62389;51.412;5.436;2023-01-29T06:34:30;102858.28;;;-1.26;89.52
74045;BME280;62389;51.412;5.436;2023-01-29T06:36:55;102850.72;;;-1.23;88.90
74045;BME280;62389;51.412;5.436;2023-01-29T06:39:21;102830.31;;;-1.20;89.10
74045;BME280;62389;51.412;5.436;2023-01-29T06:41:46;102820.94;;;-1.18;89.17
74045;BME280;62389;51.412;5.436;2023-01-29T06:44:12;102815.81;;;-1.18;88.82
74045;BME280;62389;51.412;5.436;2023-01-29T06:46:37;102814.16;;;-1.16;89.05
74045;BME280;62389;51.412;5.436;2023-01-29T06:49:02;102808.16;;;-1.16;88.94
74045;BME280;62389;51.412;5.436;2023-01-29T06:51:28;102814.16;;;-1.16;89.13
74045;BME280;62389;51.412;5.436;2023-01-29T06:53:53;102815.06;;;-1.15;89.34
74045;BME280;62389;51.412;5.436;2023-01-29T06:56:20;102819.28;;;-1.16;89.36
74045;BME280;62389;51.412;5.436;2023-01-29T06:58:46;102816.81;;;-1.14;89.43
74045;BME280;62389;51.412;5.436;2023-01-29T07:01:12;102810.84;;;-1.13;89.30
74045;BME280;62389;51.412;5.436;2023-01-29T07:03:37;102804.00;;;-1.13;89.09
74045;BME280;62389;51.412;5.436;2023-01-29T07:06:03;102796.31;;;-1.13;89.03
74045;BME280;62389;51.412;5.436;2023-01-29T07:08:29;102808.41;;;-1.10;89.26
74045;BME280;62389;51.412;5.436;2023-01-29T07:10:59;102798.16;;;-1.09;89.44
74045;BME280;62389;51.412;5.436;2023-01-29T07:13:24;102799.91;;;-1.08;88.79
74045;BME280;62389;51.412;5.436;2023-01-29T07:15:50;102802.53;;;-1.06;89.57
74045;BME280;62389;51.412;5.436;2023-01-29T07:18:15;102806.88;;;-1.05;89.16
74045;BME280;62389;51.412;5.436;2023-01-29T07:20:41;102808.66;;;-1.02;89.50
74045;BME280;62389;51.412;5.436;2023-01-29T07:23:11;102800.94;;;-1.02;88.99
74045;BME280;62389;51.412;5.436;2023-01-29T07:25:37;102809.53;;;-1.02;88.90
74045;BME280;62389;51.412;5.436;2023-01-29T07:28:03;102806.97;;;-1.02;89.18
74045;BME280;62389;51.412;5.436;2023-01-29T07:30:29;102811.22;;;-1.02;89.28
74045;BME280;62389;51.412;5.436;2023-01-29T07:32:55;102812.97;;;-1.01;89.17
74045;BME280;62389;51.412;5.436;2023-01-29T07:35:20;102817.28;;;-1.00;89.16
74045;BME280;62389;51.412;5.436;2023-01-29T07:37:49;102809.69;;;-0.97;89.26
74045;BME280;62389;51.412;5.436;2023-01-29T07:40:15;102818.25;;;-0.97;89.30
74045;BME280;62389;51.412;5.436;2023-01-29T07:42:40;102814.13;;;-0.93;88.98
74045;BME280;62389;51.412;5.436;2023-01-29T07:45:08;102808.13;;;-0.94;88.82
74045;BME280;62389;51.412;5.436;2023-01-29T07:47:34;102796.19;;;-0.92;89.36
74045;BME280;62389;51.412;5.436;2023-01-29T07:49:59;102795.44;;;-0.89;89.26
74045;BME280;62389;51.412;5.436;2023-01-29T07:52:25;102792.00;;;-0.90;89.00
74045;BME280;62389;51.412;5.436;2023-01-29T07:54:51;102788.63;;;-0.87;88.67
74045;BME280;62389;51.412;5.436;2023-01-29T07:57:16;102799.88;;;-0.85;89.28
74045;BME280;62389;51.412;5.436;2023-01-29T07:59:41;102805.88;;;-0.85;89.17
74045;BME280;62389;51.412;5.436;2023-01-29T08:02:08;102804.16;;;-0.84;88.37
74045;BME280;62389;51.412;5.436;2023-01-29T08:04:34;102800.78;;;-0.83;88.41
74045;BME280;62389;51.412;5.436;2023-01-29T08:06:59;102795.69;;;-0.82;88.69
74045;BME280;62389;51.412;5.436;2023-01-29T08:09:24;102795.69;;;-0.82;88.44
74045;BME280;62389;51.412;5.436;2023-01-29T08:11:50;102793.19;;;-0.80;88.55
74045;BME280;62389;51.412;5.436;2023-01-29T08:14:15;102802.50;;;-0.82;88.41
74045;BME280;62389;51.412;5.436;2023-01-29T08:16:40;102793.97;;;-0.81;88.49
74045;BME280;62389;51.412;5.436;2023-01-29T08:19:06;102793.19;;;-0.80;88.17
74045;BME280;62389;51.412;5.436;2023-01-29T08:21:31;102796.66;;;-0.78;88.57
74045;BME280;62389;51.412;5.436;2023-01-29T08:23:56;102790.66;;;-0.79;88.70
74045;BME280;62389;51.412;5.436;2023-01-29T08:26:22;102783.84;;;-0.76;88.43
74045;BME280;62389;51.412;5.436;2023-01-29T08:28:47;102792.50;;;-0.74;88.20
74045;BME280;62389;51.412;5.436;2023-01-29T08:31:17;102792.56;;;-0.73;88.26
74045;BME280;62389;51.412;5.436;2023-01-29T08:33:44;102796.00;;;-0.72;88.04
74045;BME280;62389;51.412;5.436;2023-01-29T08:36:09;102793.47;;;-0.71;88.23
74045;BME280;62389;51.412;5.436;2023-01-29T08:38:35;102787.53;;;-0.70;87.91
74045;BME280;62389;51.412;5.436;2023-01-29T08:41:00;102777.25;;;-0.70;88.19
74045;BME280;62389;51.412;5.436;2023-01-29T08:43:26;102790.19;;;-0.67;88.19
74045;BME280;62389;51.412;5.436;2023-01-29T08:45:51;102778.28;;;-0.65;88.33
74045;BME280;62389;51.412;5.436;2023-01-29T08:48:16;102790.31;;;-0.64;88.26
74045;BME280;62389;51.412;5.436;2023-01-29T08:50:42;102779.19;;;-0.63;87.74
74045;BME280;62389;51.412;5.436;2023-01-29T08:53:08;102766.34;;;-0.63;87.62
74045;BME280;62389;51.412;5.436;2023-01-29T08:55:40;102770.72;;;-0.60;88.43
74045;BME280;62389;51.412;5.436;2023-01-29T08:58:07;102774.22;;;-0.58;87.83
74045;BME280;62389;51.412;5.436;2023-01-29T09:00:33;102762.22;;;-0.58;87.72
74045;BME280;62389;51.412;5.436;2023-01-29T09:02:59;102763.97;;;-0.57;88.03
74045;BME280;62389;51.412;5.436;2023-01-29T09:05:26;102760.53;;;-0.57;87.78
74045;BME280;62389;51.412;5.436;2023-01-29T09:07:52;102771.75;;;-0.55;88.17
74045;BME280;62389;51.412;5.436;2023-01-29T09:10:18;102761.50;;;-0.54;87.74
74045;BME280;62389;51.412;5.436;2023-01-29T09:12:43;102768.50;;;-0.49;87.72
74045;BME280;62389;51.412;5.436;2023-01-29T09:15:09;102767.75;;;-0.45;87.84
74045;BME280;62389;51.412;5.436;2023-01-29T09:17:34;102777.25;;;-0.44;87.62
74045;BME280;62389;51.412;5.436;2023-01-29T09:20:00;102772.19;;;-0.41;88.29
74045;BME280;62389;51.412;5.436;2023-01-29T09:22:25;102767.97;;;-0.39;87.19
74045;BME280;62389;51.412;5.436;2023-01-29T09:24:50;102756.00;;;-0.39;86.94
74045;BME280;62389;51.412;5.436;2023-01-29T09:27:16;102754.25;;;-0.40;87.13
74045;BME280;62389;51.412;5.436;2023-01-29T09:29:41;102748.31;;;-0.37;86.86
74045;BME280;62389;51.412;5.436;2023-01-29T09:32:07;102754.38;;;-0.35;87.08
74045;BME280;62389;51.412;5.436;2023-01-29T09:34:32;102758.72;;;-0.34;87.01
74045;BME280;62389;51.412;5.436;2023-01-29T09:36:58;102752.75;;;-0.33;87.24
74045;BME280;62389;51.412;5.436;2023-01-29T09:39:23;102749.44;;;-0.29;86.90
74045;BME280;62389;51.412;5.436;2023-01-29T09:42:08;102752.94;;;-0.27;86.60
74045;BME280;62389;51.412;5.436;2023-01-29T09:44:57;102751.22;;;-0.27;86.36
74045;BME280;62389;51.412;5.436;2023-01-29T09:47:25;102753.88;;;-0.25;86.56
74045;BME280;62389;51.412;5.436;2023-01-29T09:49:56;102749.53;;;-0.26;86.87
74045;BME280;62389;51.412;5.436;2023-01-29T09:52:29;102741.91;;;-0.23;86.92
74045;BME280;62389;51.412;5.436;2023-01-29T09:57:45;102740.41;;;-0.16;86.21
74045;BME280;62389;51.412;5.436;2023-01-29T10:00:19;102740.41;;;-0.16;86.02
74045;BME280;62389;51.412;5.436;2023-01-29T10:03:53;102737.06;;;-0.14;86.77
74045;BME280;62389;51.412;5.436;2023-01-29T10:06:07;102745.78;;;-0.09;86.43
74045;BME280;62389;51.412;5.436;2023-01-29T10:16:50;102748.00;;;0.08;85.75
74045;BME280;62389;51.412;5.436;2023-01-29T10:22:03;102749.84;;;0.12;85.74
74045;BME280;62389;51.412;5.436;2023-01-29T10:24:51;102751.69;;;0.16;85.74
74045;BME280;62389;51.412;5.436;2023-01-29T10:27:18;102755.16;;;0.18;85.22
74045;BME280;62389;51.412;5.436;2023-01-29T10:29:48;102751.75;;;0.19;84.99
74045;BME280;62389;51.412;5.436;2023-01-29T10:32:21;102751.84;;;0.22;85.20
74045;BME280;62389;51.412;5.436;2023-01-29T10:34:51;102748.34;;;0.20;84.92
74045;BME280;62389;51.412;5.436;2023-01-29T10:37:25;102739.81;;;0.21;85.45
74045;BME280;62389;51.412;5.436;2023-01-29T10:39:59;102745.13;;;0.27;85.63
74045;BME280;62389;51.412;5.436;2023-01-29T10:42:46;102733.13;;;0.28;84.75
74045;BME280;62389;51.412;5.436;2023-01-29T10:45:32;102733.19;;;0.29;84.46
74045;BME280;62389;51.412;5.436;2023-01-29T10:57:55;102719.69;;;0.38;84.13
74045;BME280;62389;51.412;5.436;2023-01-29T11:02:18;102713.97;;;0.48;84.43
74045;BME280;62389;51.412;5.436;2023-01-29T11:04:45;102711.53;;;0.52;84.09
74045;BME280;62389;51.412;5.436;2023-01-29T11:07:12;102715.94;;;0.57;83.89
74045;BME280;62389;51.412;5.436;2023-01-29T11:09:56;102707.47;;;0.61;84.13
74045;BME280;62389;51.412;5.436;2023-01-29T11:12:28;102701.50;;;0.62;83.82
74045;BME280;62389;51.412;5.436;2023-01-29T11:15:14;102701.53;;;0.63;84.16
74045;BME280;62389;51.412;5.436;2023-01-29T11:18:03;102697.31;;;0.65;83.45
74045;BME280;62389;51.412;5.436;2023-01-29T11:20:29;102692.22;;;0.68;83.45
74045;BME280;62389;51.412;5.436;2023-01-29T11:22:55;102689.69;;;0.70;83.68
74045;BME280;62389;51.412;5.436;2023-01-29T11:25:22;102687.19;;;0.73;83.72
74045;BME280;62389;51.412;5.436;2023-01-29T11:27:54;102685.50;;;0.75;83.55
74045;BME280;62389;51.412;5.436;2023-01-29T11:30:40;102672.72;;;0.78;83.25
74045;BME280;62389;51.412;5.436;2023-01-29T11:33:10;102666.81;;;0.81;83.08
74045;BME280;62389;51.412;5.436;2023-01-29T11:35:36;102664.25;;;0.82;83.17
74045;BME280;62389;51.412;5.436;2023-01-29T11:40:40;102655.81;;;0.88;83.01
74045;BME280;62389;51.412;5.436;2023-01-29T11:43:21;102647.34;;;0.93;83.36
74045;BME280;62389;51.412;5.436;2023-01-29T11:45:52;102632.00;;;0.96;82.53
74045;BME280;62389;51.412;5.436;2023-01-29T11:48:21;102623.50;;;1.00;82.59
74045;BME280;62389;51.412;5.436;2023-01-29T11:50:58;102614.22;;;1.09;83.18
74045;BME280;62389;51.412;5.436;2023-01-29T11:53:32;102611.00;;;1.17;83.12
74045;BME280;62389;51.412;5.436;2023-01-29T11:55:58;102600.91;;;1.26;82.45
74045;BME280;62389;51.412;5.436;2023-01-29T11:58:29;102592.44;;;1.32;81.79
74045;BME280;62389;51.412;5.436;2023-01-29T12:00:57;102603.66;;;1.34;80.99
74045;BME280;62389;51.412;5.436;2023-01-29T12:03:34;102589.91;;;1.35;81.55
74045;BME280;62389;51.412;5.436;2023-01-29T12:06:19;102577.94;;;1.37;81.47
74045;BME280;62389;51.412;5.436;2023-01-29T12:08:54;102571.09;;;1.39;80.14
74045;BME280;62389;51.412;5.436;2023-01-29T12:11:29;102571.19;;;1.42;81.24
74045;BME280;62389;51.412;5.436;2023-01-29T12:13:57;102562.59;;;1.43;80.30
74045;BME280;62389;51.412;5.436;2023-01-29T12:21:37;102536.19;;;1.55;80.52
74045;BME280;62389;51.412;5.436;2023-01-29T12:24:15;102531.19;;;1.61;80.65
74045;BME280;62389;51.412;5.436;2023-01-29T12:29:30;102521.97;;;1.74;80.46
74045;BME280;62389;51.412;5.436;2023-01-29T12:34:44;102513.44;;;1.78;80.88
74045;BME280;62389;51.412;5.436;2023-01-29T12:39:43;102510.78;;;1.75;79.74
74045;BME280;62389;51.412;5.436;2023-01-29T12:42:19;102512.50;;;1.74;79.20
74045;BME280;62389;51.412;5.436;2023-01-29T12:44:58;102509.06;;;1.74;79.79
74045;BME280;62389;51.412;5.436;2023-01-29T12:49:56;102503.88;;;1.72;79.66
74045;BME280;62389;51.412;5.436;2023-01-29T12:52:38;102503.91;;;1.74;79.95
74045;BME280;62389;51.412;5.436;2023-01-29T12:55:41;102503.91;;;1.74;79.43
74045;BME280;62389;51.412;5.436;2023-01-29T12:58:13;102495.31;;;1.75;79.14
74045;BME280;62389;51.412;5.436;2023-01-29T13:00:42;102496.13;;;1.71;78.68
74045;BME280;62389;51.412;5.436;2023-01-29T13:08:20;102490.97;;;1.71;78.83
74045;BME280;62389;51.412;5.436;2023-01-29T13:10:49;102482.31;;;1.69;79.28
74045;BME280;62389;51.412;5.436;2023-01-29T13:15:48;102478.88;;;1.70;79.43
74045;BME280;62389;51.412;5.436;2023-01-29T13:21:02;102471.16;;;1.70;79.52
74045;BME280;62389;51.412;5.436;2023-01-29T13:23:42;102463.41;;;1.70;79.85
74045;BME280;62389;51.412;5.436;2023-01-29T13:26:08;102462.59;;;1.71;79.83
74045;BME280;62389;51.412;5.436;2023-01-29T13:28:33;102466.91;;;1.73;80.21
74045;BME280;62389;51.412;5.436;2023-01-29T13:31:19;102452.38;;;1.77;79.73
74045;BME280;62389;51.412;5.436;2023-01-29T13:33:58;102457.50;;;1.75;80.04
74045;BME280;62389;51.412;5.436;2023-01-29T13:36:28;102448.06;;;1.76;80.39
74045;BME280;62389;51.412;5.436;2023-01-29T13:39:06;102447.25;;;1.78;80.17
74045;BME280;62389;51.412;5.436;2023-01-29T13:41:34;102444.66;;;1.78;80.31
74045;BME280;62389;51.412;5.436;2023-01-29T13:43:59;102436.06;;;1.79;80.11
74045;BME280;62389;51.412;5.436;2023-01-29T13:46:25;102429.19;;;1.80;79.85
74045;BME280;62389;51.412;5.436;2023-01-29T13:48:51;102424.91;;;1.80;79.91
74045;BME280;62389;51.412;5.436;2023-01-29T13:51:20;102422.38;;;1.82;80.08
74045;BME280;62389;51.412;5.436;2023-01-29T13:54:12;102419.88;;;1.87;80.38
74045;BME280;62389;51.412;5.436;2023-01-29T13:56:55;102425.91;;;1.87;80.17
74045;BME280;62389;51.412;5.436;2023-01-29T13:59:49;102415.59;;;1.87;79.79
74045;BME280;62389;51.412;5.436;2023-01-29T14:02:24;102422.41;;;1.85;79.80
74045;BME280;62389;51.412;5.436;2023-01-29T14:04:50;102421.53;;;1.83;79.35
74045;BME280;62389;51.412;5.436;2023-01-29T14:07:46;102425.84;;;1.84;80.37
74045;BME280;62389;51.412;5.436;2023-01-29T14:10:20;102417.25;;;1.85;79.96
74045;BME280;62389;51.412;5.436;2023-01-29T14:12:48;102427.56;;;1.85;79.69
74045;BME280;62389;51.412;5.436;2023-01-29T14:15:21;102418.97;;;1.85;80.31
74045;BME280;62389;51.412;5.436;2023-01-29T14:17:53;102420.75;;;1.87;80.15
74045;BME280;62389;51.412;5.436;2023-01-29T14:20:22;102407.84;;;1.87;80.58
74045;BME280;62389;51.412;5.436;2023-01-29T14:22:56;102410.44;;;1.89;80.00
74045;BME280;62389;51.412;5.436;2023-01-29T14:25:28;102403.56;;;1.89;80.98
74045;BME280;62389;51.412;5.436;2023-01-29T14:27:56;102406.13;;;1.88;80.08
74045;BME280;62389;51.412;5.436;2023-01-29T14:30:22;102394.94;;;1.87;80.58
74045;BME280;62389;51.412;5.436;2023-01-29T14:32:50;102400.97;;;1.89;79.83
74045;BME280;62389;51.412;5.436;2023-01-29T14:35:27;102387.22;;;1.90;80.26
74045;BME280;62389;51.412;5.436;2023-01-29T14:38:01;102393.25;;;1.91;80.39
74045;BME280;62389;51.412;5.436;2023-01-29T14:40:28;102385.56;;;1.94;79.96
74045;BME280;62389;51.412;5.436;2023-01-29T14:43:16;102383.84;;;1.93;79.59
74045;BME280;62389;51.412;5.436;2023-01-29T14:45:44;102387.28;;;1.93;80.37
74045;BME280;62389;51.412;5.436;2023-01-29T14:53:22;102385.66;;;1.97;80.32
74045;BME280;62389;51.412;5.436;2023-01-29T14:58:34;102383.06;;;1.98;79.59
74045;BME280;62389;51.412;5.436;2023-01-29T15:01:04;102374.47;;;1.96;79.62
74045;BME280;62389;51.412;5.436;2023-01-29T15:03:38;102383.94;;;1.99;79.70